createdAt,value
2023-04-30T00:00:54.882Z,50.877186
2023-04-30T00:01:54.948Z,50.877216
2023-04-30T00:02:54.955Z,50.877232
2023-04-30T00:03:54.966Z,50.877224
2023-04-30T00:04:54.922Z,50.877193
2023-04-30T00:05:54.914Z,50.877151
2023-04-30T00:06:54.841Z,50.877159
2023-04-30T00:07:54.837Z,50.877186
2023-04-30T00:08:54.804Z,50.877220
2023-04-30T00:09:54.944Z,50.877213
2023-04-30T00:10:54.793Z,50.877209
2023-04-30T00:11:54.775Z,50.877213
2023-04-30T00:12:54.793Z,50.877220
2023-04-30T00:13:54.901Z,50.877201
2023-04-30T00:14:54.758Z,50.877209
2023-04-30T00:15:54.766Z,50.877151
2023-04-30T00:16:54.739Z,50.877113
2023-04-30T00:17:54.778Z,50.877094
2023-04-30T00:18:54.737Z,50.877144
2023-04-30T00:19:54.944Z,50.877083
2023-04-30T00:20:54.692Z,50.877174
2023-04-30T00:21:54.685Z,50.877235
2023-04-30T00:22:54.671Z,50.877174
2023-04-30T00:23:54.659Z,50.877163
2023-04-30T00:24:54.665Z,50.877083
2023-04-30T00:25:54.637Z,50.877159
2023-04-30T00:26:54.669Z,50.877140
2023-04-30T00:27:54.623Z,50.877083
2023-04-30T00:28:54.616Z,50.876926
2023-04-30T00:29:54.780Z,50.877037
2023-04-30T00:30:54.610Z,50.877239
2023-04-30T00:31:54.630Z,50.877342
2023-04-30T00:32:54.616Z,50.877308
2023-04-30T00:33:54.575Z,50.877274
2023-04-30T00:34:54.552Z,50.877289
2023-04-30T00:35:54.554Z,50.877254
2023-04-30T00:36:54.532Z,50.877205
2023-04-30T00:37:54.517Z,50.877232
2023-04-30T00:38:54.508Z,50.877293
2023-04-30T00:39:54.616Z,50.877403
2023-04-30T00:40:54.518Z,50.877346
2023-04-30T00:41:54.508Z,50.877319
2023-04-30T00:42:54.457Z,50.877312
2023-04-30T00:43:54.459Z,50.877331
2023-04-30T00:44:54.449Z,50.877232
2023-04-30T00:45:54.513Z,50.877117
2023-04-30T00:46:54.458Z,50.877106
2023-04-30T00:47:54.452Z,50.877167
2023-04-30T00:48:54.412Z,50.877197
2023-04-30T00:49:54.629Z,50.877163
2023-04-30T00:50:54.402Z,50.877132
2023-04-30T00:51:54.434Z,50.877220
2023-04-30T00:52:54.365Z,50.877205
2023-04-30T00:53:54.359Z,50.877171
2023-04-30T00:54:54.434Z,50.877197
2023-04-30T00:55:54.337Z,50.877193
2023-04-30T00:56:54.328Z,50.877239
2023-04-30T00:57:54.321Z,50.877224
2023-04-30T00:58:54.322Z,50.877228
2023-04-30T00:59:55.561Z,50.877228
2023-04-30T01:00:54.301Z,50.877209
2023-04-30T01:01:54.286Z,50.877216
2023-04-30T01:02:54.393Z,50.877201
2023-04-30T01:03:54.262Z,50.877197
2023-04-30T01:04:54.271Z,50.877193
2023-04-30T01:05:54.311Z,50.877190
2023-04-30T01:06:54.218Z,50.877190
2023-04-30T01:07:54.220Z,50.877174
2023-04-30T01:08:54.217Z,50.877213
2023-04-30T01:09:54.519Z,50.877201
2023-04-30T01:10:54.201Z,50.877201
2023-04-30T01:11:54.171Z,50.877197
2023-04-30T01:12:54.239Z,50.877224
2023-04-30T01:13:54.201Z,50.877224
2023-04-30T01:14:54.141Z,50.877216
2023-04-30T01:15:54.150Z,50.877247
2023-04-30T01:16:54.134Z,50.877220
2023-04-30T01:17:54.207Z,50.877228
2023-04-30T01:18:54.253Z,50.877216
2023-04-30T01:19:54.245Z,50.877190
2023-04-30T01:20:54.080Z,50.877197
2023-04-30T01:21:54.070Z,50.877197
2023-04-30T01:22:54.086Z,50.877205
2023-04-30T01:23:54.064Z,50.877110
2023-04-30T01:24:54.061Z,50.877201
2023-04-30T01:25:54.041Z,50.877148
2023-04-30T01:26:54.022Z,50.877144
2023-04-30T01:27:54.047Z,50.877190
2023-04-30T01:28:54.009Z,50.877213
2023-04-30T01:29:54.206Z,50.877216
2023-04-30T01:30:54.018Z,50.877205
2023-04-30T01:31:53.970Z,50.877190
2023-04-30T01:32:54.417Z,50.877155
2023-04-30T01:33:53.973Z,50.877186
2023-04-30T01:34:53.944Z,50.877186
2023-04-30T01:35:53.924Z,50.877197
2023-04-30T01:36:53.919Z,50.877186
2023-04-30T01:37:53.907Z,50.877171
2023-04-30T01:38:53.925Z,50.877182
2023-04-30T01:39:54.012Z,50.877174
2023-04-30T01:40:53.904Z,50.877193
2023-04-30T01:41:53.881Z,50.877213
2023-04-30T01:42:53.874Z,50.877216
2023-04-30T01:43:53.887Z,50.877213
2023-04-30T01:44:53.858Z,50.877197
2023-04-30T01:45:53.878Z,50.877190
2023-04-30T01:46:53.830Z,50.877201
2023-04-30T01:47:53.926Z,50.877193
2023-04-30T01:48:53.803Z,50.877186
2023-04-30T01:49:53.937Z,50.877205
2023-04-30T01:50:53.811Z,50.877197
2023-04-30T01:51:53.797Z,50.877197
2023-04-30T01:52:53.817Z,50.877182
2023-04-30T01:53:53.764Z,50.877193
2023-04-30T01:54:53.752Z,50.877190
2023-04-30T01:55:53.761Z,50.877213
2023-04-30T01:56:53.730Z,50.877201
2023-04-30T01:57:53.701Z,50.877205
2023-04-30T01:58:53.768Z,50.877182
2023-04-30T01:59:53.840Z,50.877182
2023-04-30T02:00:53.692Z,50.877171
2023-04-30T02:01:53.774Z,50.877193
2023-04-30T02:02:53.751Z,50.877201
2023-04-30T02:03:53.814Z,50.877205
2023-04-30T02:04:53.660Z,50.877209
2023-04-30T02:05:53.646Z,50.877209
2023-04-30T02:06:53.687Z,50.877216
2023-04-30T02:07:53.622Z,50.877213
2023-04-30T02:08:53.607Z,50.877197
2023-04-30T02:09:53.841Z,50.877182
2023-04-30T02:10:53.639Z,50.877174
2023-04-30T02:11:53.572Z,50.877205
2023-04-30T02:12:53.581Z,50.877190
2023-04-30T02:13:53.547Z,50.877174
2023-04-30T02:14:53.555Z,50.877220
2023-04-30T02:15:53.545Z,50.877239
2023-04-30T02:16:53.525Z,50.877213
2023-04-30T02:17:53.544Z,50.877201
2023-04-30T02:18:53.509Z,50.877216
2023-04-30T02:19:53.664Z,50.877201
2023-04-30T02:20:53.507Z,50.877213
2023-04-30T02:21:53.481Z,50.877216
2023-04-30T02:22:53.487Z,50.877220
2023-04-30T02:23:53.452Z,50.877159
2023-04-30T02:24:53.466Z,50.877159
2023-04-30T02:25:53.437Z,50.877228
2023-04-30T02:26:53.418Z,50.877300
2023-04-30T02:27:53.418Z,50.877377
2023-04-30T02:28:53.440Z,50.877262
2023-04-30T02:29:53.485Z,50.877186
2023-04-30T02:30:53.392Z,50.877186
2023-04-30T02:31:53.422Z,50.877193
2023-04-30T02:32:53.421Z,50.877171
2023-04-30T02:33:53.385Z,50.877186
2023-04-30T02:34:53.357Z,50.877178
2023-04-30T02:35:53.332Z,50.877163
2023-04-30T02:36:53.365Z,50.877167
2023-04-30T02:37:53.324Z,50.877167
2023-04-30T02:38:53.314Z,50.877167
2023-04-30T02:39:53.500Z,50.877148
2023-04-30T02:40:53.292Z,50.877148
2023-04-30T02:41:53.272Z,50.877155
2023-04-30T02:42:53.258Z,50.877125
2023-04-30T02:43:53.248Z,50.877136
2023-04-30T02:44:53.254Z,50.877144
2023-04-30T02:45:53.305Z,50.877148
2023-04-30T02:46:53.233Z,50.877117
2023-04-30T02:47:53.285Z,50.877144
2023-04-30T02:48:53.211Z,50.877151
2023-04-30T02:49:53.408Z,50.877132
2023-04-30T02:50:53.243Z,50.877125
2023-04-30T02:51:53.212Z,50.877140
2023-04-30T02:52:53.172Z,50.877159
2023-04-30T02:53:53.170Z,50.877144
2023-04-30T02:54:53.149Z,50.877132
2023-04-30T02:55:53.193Z,50.877132
2023-04-30T02:56:53.143Z,50.877125
2023-04-30T02:57:53.142Z,50.877140
2023-04-30T02:58:53.130Z,50.877121
2023-04-30T02:59:53.498Z,50.877129
2023-04-30T03:00:53.111Z,50.877121
2023-04-30T03:01:53.107Z,50.877098
2023-04-30T03:02:53.223Z,50.877144
2023-04-30T03:03:53.108Z,50.877148
2023-04-30T03:04:53.054Z,50.877136
2023-04-30T03:05:53.048Z,50.877144
2023-04-30T03:06:53.041Z,50.877148
2023-04-30T03:07:53.032Z,50.877132
2023-04-30T03:08:53.025Z,50.877125
2023-04-30T03:09:53.149Z,50.877129
2023-04-30T03:10:52.981Z,50.877129
2023-04-30T03:11:53.014Z,50.877136
2023-04-30T03:12:52.968Z,50.877125
2023-04-30T03:14:24.986Z,50.877140
2023-04-30T03:14:52.953Z,50.877136
2023-04-30T03:15:52.960Z,50.877148
2023-04-30T03:16:52.919Z,50.877129
2023-04-30T03:17:52.967Z,50.877155
2023-04-30T03:18:52.907Z,50.877151
2023-04-30T03:19:53.069Z,50.877155
2023-04-30T03:20:52.887Z,50.877155
2023-04-30T03:21:52.876Z,50.877167
2023-04-30T03:22:52.878Z,50.877125
2023-04-30T03:23:52.845Z,50.877148
2023-04-30T03:24:52.873Z,50.877140
2023-04-30T03:25:52.836Z,50.877125
2023-04-30T03:26:52.935Z,50.877102
2023-04-30T03:27:52.820Z,50.877155
2023-04-30T03:28:52.802Z,50.877144
2023-04-30T03:29:53.129Z,50.877182
2023-04-30T03:30:52.791Z,50.877155
2023-04-30T03:31:52.996Z,50.877159
2023-04-30T03:32:52.878Z,50.877197
2023-04-30T03:33:52.809Z,50.877155
2023-04-30T03:34:52.769Z,50.877155
2023-04-30T03:35:52.738Z,50.877186
2023-04-30T03:36:52.748Z,50.877171
2023-04-30T03:37:52.748Z,50.877186
2023-04-30T03:38:52.714Z,50.877193
2023-04-30T03:39:52.955Z,50.877205
2023-04-30T03:40:52.719Z,50.877228
2023-04-30T03:41:52.688Z,50.877197
2023-04-30T03:42:52.685Z,50.877155
2023-04-30T03:43:52.667Z,50.877144
2023-04-30T03:44:52.670Z,50.877182
2023-04-30T03:45:52.774Z,50.877186
2023-04-30T03:46:52.659Z,50.877197
2023-04-30T03:47:52.703Z,50.877182
2023-04-30T03:48:52.613Z,50.877178
2023-04-30T03:49:52.789Z,50.877155
2023-04-30T03:50:52.660Z,50.877132
2023-04-30T03:51:52.614Z,50.877193
2023-04-30T03:52:52.589Z,50.877178
2023-04-30T03:53:52.563Z,50.877197
2023-04-30T03:54:52.582Z,50.877216
2023-04-30T03:55:52.564Z,50.877182
2023-04-30T03:56:52.669Z,50.877178
2023-04-30T03:57:52.523Z,50.877155
2023-04-30T03:58:52.513Z,50.877163
2023-04-30T03:59:52.620Z,50.877171
2023-04-30T04:00:52.504Z,50.877178
2023-04-30T04:01:52.526Z,50.877193
2023-04-30T04:02:52.568Z,50.877247
2023-04-30T04:03:52.531Z,50.877216
2023-04-30T04:04:52.476Z,50.877178
2023-04-30T04:05:52.531Z,50.877186
2023-04-30T04:06:52.472Z,50.877197
2023-04-30T04:07:52.451Z,50.877186
2023-04-30T04:08:52.447Z,50.877186
2023-04-30T04:09:52.722Z,50.877193
2023-04-30T04:10:52.415Z,50.877174
2023-04-30T04:11:52.508Z,50.877201
2023-04-30T04:12:52.387Z,50.877190
2023-04-30T04:13:52.405Z,50.877193
2023-04-30T04:14:52.368Z,50.877197
2023-04-30T04:15:52.471Z,50.877201
2023-04-30T04:16:52.377Z,50.877201
2023-04-30T04:17:52.501Z,50.877193
2023-04-30T04:18:52.355Z,50.877228
2023-04-30T04:19:52.461Z,50.877213
2023-04-30T04:20:52.322Z,50.877205
2023-04-30T04:21:52.325Z,50.877186
2023-04-30T04:22:52.299Z,50.877205
2023-04-30T04:23:52.286Z,50.877209
2023-04-30T04:24:52.390Z,50.877186
2023-04-30T04:25:52.308Z,50.877216
2023-04-30T04:26:52.259Z,50.877213
2023-04-30T04:27:52.270Z,50.877224
2023-04-30T04:28:52.237Z,50.877216
2023-04-30T04:29:52.384Z,50.877209
2023-04-30T04:30:52.217Z,50.877197
2023-04-30T04:31:52.221Z,50.877201
2023-04-30T04:32:52.282Z,50.877182
2023-04-30T04:33:52.263Z,50.877209
2023-04-30T04:34:52.195Z,50.877213
2023-04-30T04:35:52.188Z,50.877213
2023-04-30T04:36:52.148Z,50.877201
2023-04-30T04:37:52.188Z,50.877209
2023-04-30T04:38:52.144Z,50.877216
2023-04-30T04:39:52.358Z,50.877205
2023-04-30T04:40:52.146Z,50.877228
2023-04-30T04:41:52.118Z,50.877228
2023-04-30T04:42:52.095Z,50.877243
2023-04-30T04:43:52.107Z,50.877171
2023-04-30T04:44:52.082Z,50.877201
2023-04-30T04:45:52.136Z,50.877209
2023-04-30T04:46:52.230Z,50.877190
2023-04-30T04:47:52.234Z,50.877193
2023-04-30T04:48:52.046Z,50.877232
2023-04-30T04:49:52.231Z,50.877205
2023-04-30T04:50:52.044Z,50.877243
2023-04-30T04:51:52.093Z,50.877186
2023-04-30T04:52:52.066Z,50.877235
2023-04-30T04:53:51.998Z,50.877220
2023-04-30T04:54:51.985Z,50.877213
2023-04-30T04:55:51.969Z,50.877224
2023-04-30T04:56:51.991Z,50.877213
2023-04-30T04:57:51.970Z,50.877190
2023-04-30T04:58:51.946Z,50.877220
2023-04-30T04:59:51.989Z,50.877159
2023-04-30T05:00:51.926Z,50.877186
2023-04-30T05:01:52.016Z,50.877201
2023-04-30T05:02:52.011Z,50.877216
2023-04-30T05:03:51.969Z,50.877224
2023-04-30T05:04:51.900Z,50.877201
2023-04-30T05:05:51.872Z,50.877224
2023-04-30T05:06:51.866Z,50.877243
2023-04-30T05:07:51.869Z,50.877190
2023-04-30T05:08:51.854Z,50.877224
2023-04-30T05:09:51.893Z,50.877205
2023-04-30T05:10:51.836Z,50.877197
2023-04-30T05:11:51.811Z,50.877201
2023-04-30T05:12:51.806Z,50.877178
2023-04-30T05:13:51.811Z,50.877190
2023-04-30T05:14:51.785Z,50.877193
2023-04-30T05:15:51.804Z,50.877213
2023-04-30T05:16:51.774Z,50.877213
2023-04-30T05:17:51.806Z,50.877201
2023-04-30T05:18:51.734Z,50.877186
2023-04-30T05:19:53.063Z,50.877209
2023-04-30T05:20:51.748Z,50.877213
2023-04-30T05:21:51.741Z,50.877224
2023-04-30T05:22:51.719Z,50.877228
2023-04-30T05:23:51.693Z,50.877201
2023-04-30T05:24:51.682Z,50.877205
2023-04-30T05:25:51.687Z,50.877213
2023-04-30T05:26:51.680Z,50.877224
2023-04-30T05:27:51.656Z,50.877197
2023-04-30T05:28:51.639Z,50.877220
2023-04-30T05:29:51.633Z,50.877224
2023-04-30T05:30:51.616Z,50.877232
2023-04-30T05:31:52.804Z,50.877228
2023-04-30T05:32:51.605Z,50.877209
2023-04-30T05:33:51.593Z,50.877209
2023-04-30T05:34:51.581Z,50.877216
2023-04-30T05:35:51.585Z,50.877224
2023-04-30T05:36:51.575Z,50.877209
2023-04-30T05:37:51.560Z,50.877197
2023-04-30T05:38:51.542Z,50.877201
2023-04-30T05:39:51.556Z,50.877216
2023-04-30T05:40:51.519Z,50.877216
2023-04-30T05:41:52.879Z,50.877232
2023-04-30T05:42:52.511Z,50.877247
2023-04-30T05:43:51.496Z,50.877228
2023-04-30T05:44:51.504Z,50.877224
2023-04-30T05:45:51.510Z,50.877205
2023-04-30T05:46:51.476Z,50.877239
2023-04-30T05:47:51.554Z,50.877251
2023-04-30T05:48:51.448Z,50.877235
2023-04-30T05:49:51.481Z,50.877220
2023-04-30T05:50:51.431Z,50.877228
2023-04-30T05:51:51.449Z,50.877262
2023-04-30T05:52:51.406Z,50.877258
2023-04-30T05:53:51.408Z,50.877262
2023-04-30T05:54:51.417Z,50.877213
2023-04-30T05:55:51.400Z,50.877220
2023-04-30T05:56:51.374Z,50.877239
2023-04-30T05:57:51.364Z,50.877243
2023-04-30T05:58:51.362Z,50.877258
2023-04-30T05:59:51.427Z,50.877262
2023-04-30T06:00:51.327Z,50.877258
2023-04-30T06:01:51.412Z,50.877235
2023-04-30T06:02:51.345Z,50.877235
2023-04-30T06:03:51.356Z,50.877228
2023-04-30T06:04:51.361Z,50.877239
2023-04-30T06:05:51.342Z,50.877232
2023-04-30T06:06:51.292Z,50.877266
2023-04-30T06:07:51.276Z,50.877251
2023-04-30T06:08:51.274Z,50.877266
2023-04-30T06:09:51.250Z,50.877270
2023-04-30T06:10:51.294Z,50.877228
2023-04-30T06:11:51.226Z,50.877270
2023-04-30T06:12:51.254Z,50.877220
2023-04-30T06:13:51.225Z,50.877262
2023-04-30T06:14:51.193Z,50.877243
2023-04-30T06:15:51.220Z,50.877251
2023-04-30T06:16:51.217Z,50.877201
2023-04-30T06:17:51.288Z,50.877193
2023-04-30T06:18:53.449Z,50.877205
2023-04-30T06:19:52.253Z,50.877239
2023-04-30T06:20:51.136Z,50.877254
2023-04-30T06:21:51.127Z,50.877213
2023-04-30T06:22:51.139Z,50.877178
2023-04-30T06:23:51.107Z,50.877216
2023-04-30T06:24:51.097Z,50.877193
2023-04-30T06:25:51.092Z,50.877224
2023-04-30T06:26:51.100Z,50.877182
2023-04-30T06:27:51.067Z,50.877213
2023-04-30T06:28:51.060Z,50.877197
2023-04-30T06:29:51.079Z,50.877197
2023-04-30T06:30:51.080Z,50.877190
2023-04-30T06:31:51.144Z,50.877186
2023-04-30T06:32:52.120Z,50.877186
2023-04-30T06:33:51.011Z,50.877174
2023-04-30T06:34:51.040Z,50.877159
2023-04-30T06:35:51.031Z,50.877171
2023-04-30T06:36:50.985Z,50.877151
2023-04-30T06:37:50.976Z,50.877159
2023-04-30T06:38:50.960Z,50.877151
2023-04-30T06:39:50.942Z,50.877144
2023-04-30T06:40:50.943Z,50.877148
2023-04-30T06:41:50.932Z,50.877155
2023-04-30T06:42:50.919Z,50.877159
2023-04-30T06:43:51.041Z,50.877174
2023-04-30T06:44:50.909Z,50.877178
2023-04-30T06:45:50.961Z,50.877197
2023-04-30T06:46:50.900Z,50.877190
2023-04-30T06:47:50.969Z,50.877163
2023-04-30T06:48:50.879Z,50.877159
2023-04-30T06:49:50.842Z,50.877155
2023-04-30T06:50:51.839Z,50.877148
2023-04-30T06:51:50.863Z,50.877163
2023-04-30T06:52:50.832Z,50.877178
2023-04-30T06:53:50.806Z,50.877144
2023-04-30T06:54:50.865Z,50.877186
2023-04-30T06:55:50.794Z,50.877205
2023-04-30T06:56:50.780Z,50.877193
2023-04-30T06:57:50.770Z,50.877174
2023-04-30T06:58:50.757Z,50.877151
2023-04-30T06:59:50.767Z,50.877193
2023-04-30T07:00:50.818Z,50.877174
2023-04-30T07:01:50.767Z,50.877201
2023-04-30T07:02:50.848Z,50.877220
2023-04-30T07:03:50.823Z,50.877193
2023-04-30T07:04:50.739Z,50.877148
2023-04-30T07:05:50.674Z,50.877178
2023-04-30T07:06:50.677Z,50.877182
2023-04-30T07:07:50.673Z,50.877174
2023-04-30T07:08:50.666Z,50.877190
2023-04-30T07:09:51.704Z,50.877193
2023-04-30T07:10:50.656Z,50.877140
2023-04-30T07:11:50.683Z,50.877129
2023-04-30T07:12:50.618Z,50.877144
2023-04-30T07:13:50.604Z,50.877205
2023-04-30T07:14:50.608Z,50.877151
2023-04-30T07:15:50.655Z,50.877174
2023-04-30T07:16:50.587Z,50.877163
2023-04-30T07:17:50.641Z,50.877201
2023-04-30T07:18:50.567Z,50.877201
2023-04-30T07:19:50.542Z,50.877186
2023-04-30T07:20:50.533Z,50.877193
2023-04-30T07:21:50.525Z,50.877186
2023-04-30T07:22:50.518Z,50.877205
2023-04-30T07:23:50.527Z,50.877235
2023-04-30T07:24:50.524Z,50.877216
2023-04-30T07:25:50.501Z,50.877213
2023-04-30T07:26:50.487Z,50.877197
2023-04-30T07:27:50.472Z,50.877167
2023-04-30T07:28:50.482Z,50.877171
2023-04-30T07:29:50.705Z,50.877174
2023-04-30T07:30:50.446Z,50.877159
2023-04-30T07:31:50.433Z,50.877151
2023-04-30T07:32:50.455Z,50.877186
2023-04-30T07:33:50.416Z,50.877174
2023-04-30T07:34:50.419Z,50.877148
2023-04-30T07:35:50.396Z,50.877197
2023-04-30T07:36:50.385Z,50.877193
2023-04-30T07:37:50.448Z,50.877193
2023-04-30T07:38:50.375Z,50.877186
2023-04-30T07:39:50.357Z,50.877201
2023-04-30T07:40:50.340Z,50.877190
2023-04-30T07:41:50.360Z,50.877144
2023-04-30T07:42:50.378Z,50.877171
2023-04-30T07:43:50.308Z,50.877262
2023-04-30T07:44:50.312Z,50.877247
2023-04-30T07:45:50.369Z,50.877174
2023-04-30T07:46:50.288Z,50.877178
2023-04-30T07:47:50.343Z,50.877167
2023-04-30T07:48:50.284Z,50.877178
2023-04-30T07:49:50.263Z,50.877121
2023-04-30T07:50:52.584Z,50.877113
2023-04-30T07:51:51.251Z,50.877178
2023-04-30T07:52:50.232Z,50.877201
2023-04-30T07:53:50.211Z,50.877190
2023-04-30T07:54:50.226Z,50.877186
2023-04-30T07:55:50.231Z,50.877144
2023-04-30T07:56:50.176Z,50.877125
2023-04-30T07:57:50.218Z,50.877167
2023-04-30T07:58:50.182Z,50.877136
2023-04-30T07:59:51.424Z,50.877151
2023-04-30T08:00:51.144Z,50.877163
2023-04-30T08:01:50.191Z,50.877178
2023-04-30T08:02:50.320Z,50.877174
2023-04-30T08:03:50.218Z,50.877136
2023-04-30T08:04:50.106Z,50.877140
2023-04-30T08:05:50.111Z,50.877193
2023-04-30T08:06:50.277Z,50.877174
2023-04-30T08:07:50.076Z,50.877178
2023-04-30T08:08:50.573Z,50.877148
2023-04-30T08:09:51.057Z,50.877159
2023-04-30T08:10:50.097Z,50.877151
2023-04-30T08:11:50.059Z,50.877186
2023-04-30T08:12:50.049Z,50.877110
2023-04-30T08:13:50.036Z,50.877144
2023-04-30T08:14:50.020Z,50.877132
2023-04-30T08:15:50.021Z,50.877174
2023-04-30T08:16:50.145Z,50.877182
2023-04-30T08:17:50.073Z,50.877171
2023-04-30T08:18:49.983Z,50.877197
2023-04-30T08:19:49.977Z,50.877193
2023-04-30T08:20:49.997Z,50.877174
2023-04-30T08:21:49.977Z,50.877171
2023-04-30T08:22:49.959Z,50.877197
2023-04-30T08:23:49.932Z,50.877163
2023-04-30T08:24:49.914Z,50.877171
2023-04-30T08:25:49.902Z,50.877171
2023-04-30T08:26:49.938Z,50.877171
2023-04-30T08:27:49.906Z,50.877163
2023-04-30T08:28:49.883Z,50.877163
2023-04-30T08:29:49.881Z,50.877174
2023-04-30T08:30:49.876Z,50.877151
2023-04-30T08:31:49.998Z,50.877167
2023-04-30T08:32:49.903Z,50.877163
2023-04-30T08:33:49.821Z,50.877155
2023-04-30T08:34:49.813Z,50.877167
2023-04-30T08:35:49.810Z,50.877171
2023-04-30T08:36:49.846Z,50.877159
2023-04-30T08:37:49.789Z,50.877159
2023-04-30T08:38:49.772Z,50.877148
2023-04-30T08:39:49.760Z,50.877140
2023-04-30T08:40:51.939Z,50.877163
2023-04-30T08:41:50.770Z,50.877151
2023-04-30T08:42:49.750Z,50.877144
2023-04-30T08:43:49.757Z,50.877136
2023-04-30T08:44:49.721Z,50.877151
2023-04-30T08:45:49.719Z,50.877163
2023-04-30T08:46:49.698Z,50.877163
2023-04-30T08:47:49.747Z,50.877148
2023-04-30T08:48:49.720Z,50.877148
2023-04-30T08:49:49.666Z,50.877144
2023-04-30T08:50:49.666Z,50.877144
2023-04-30T08:51:49.679Z,50.877155
2023-04-30T08:52:49.665Z,50.877178
2023-04-30T08:53:49.638Z,50.877159
2023-04-30T08:54:49.649Z,50.877174
2023-04-30T08:55:49.663Z,50.877151
2023-04-30T08:56:49.601Z,50.877220
2023-04-30T08:57:49.599Z,50.877178
2023-04-30T08:58:49.600Z,50.877193
2023-04-30T08:59:49.572Z,50.877186
2023-04-30T09:00:49.588Z,50.877171
2023-04-30T09:01:52.037Z,50.877190
2023-04-30T09:02:49.650Z,50.877224
2023-04-30T09:03:49.616Z,50.877113
2023-04-30T09:04:49.526Z,50.877171
2023-04-30T09:05:49.580Z,50.877205
2023-04-30T09:06:49.578Z,50.877258
2023-04-30T09:08:02.599Z,50.877216
2023-04-30T09:08:51.478Z,50.877220
2023-04-30T09:09:49.538Z,50.877193
2023-04-30T09:10:49.475Z,50.877209
2023-04-30T09:11:49.456Z,50.877178
2023-04-30T09:12:49.438Z,50.877136
2023-04-30T09:13:49.430Z,50.877201
2023-04-30T09:15:21.367Z,50.877209
2023-04-30T09:15:49.469Z,50.877178
2023-04-30T09:16:49.445Z,50.877190
2023-04-30T09:17:49.434Z,50.877205
2023-04-30T09:18:49.397Z,50.877193
2023-04-30T09:19:49.427Z,50.877182
2023-04-30T09:20:49.402Z,50.877190
2023-04-30T09:21:49.373Z,50.877182
2023-04-30T09:22:49.562Z,50.877182
2023-04-30T09:23:49.346Z,50.877190
2023-04-30T09:24:49.335Z,50.877186
2023-04-30T09:25:49.346Z,50.877151
2023-04-30T09:26:49.346Z,50.877159
2023-04-30T09:27:49.304Z,50.877163
2023-04-30T09:28:49.300Z,50.877178
2023-04-30T09:29:49.290Z,50.877167
2023-04-30T09:30:49.301Z,50.877174
2023-04-30T09:31:49.309Z,50.877148
2023-04-30T09:32:49.293Z,50.877174
2023-04-30T09:33:49.249Z,50.877186
2023-04-30T09:34:49.278Z,50.877193
2023-04-30T09:35:49.251Z,50.877186
2023-04-30T09:36:49.220Z,50.877174
2023-04-30T09:37:49.244Z,50.877174
2023-04-30T09:38:49.216Z,50.877178
2023-04-30T09:39:49.178Z,50.877178
2023-04-30T09:40:49.196Z,50.877163
2023-04-30T09:41:49.167Z,50.877148
2023-04-30T09:42:49.158Z,50.877182
2023-04-30T09:43:49.157Z,50.877186
2023-04-30T09:44:49.143Z,50.877174
2023-04-30T09:45:49.129Z,50.877182
2023-04-30T09:46:49.172Z,50.877186
2023-04-30T09:47:49.176Z,50.877174
2023-04-30T09:48:49.102Z,50.877174
2023-04-30T09:49:49.085Z,50.877186
2023-04-30T09:50:49.098Z,50.877182
2023-04-30T09:51:49.085Z,50.877197
2023-04-30T09:52:49.079Z,50.877190
2023-04-30T09:53:49.075Z,50.877197
2023-04-30T09:54:49.083Z,50.877193
2023-04-30T09:55:49.124Z,50.877201
2023-04-30T09:56:49.027Z,50.877201
2023-04-30T09:57:49.023Z,50.877201
2023-04-30T09:58:49.061Z,50.877174
2023-04-30T09:59:49.056Z,50.877186
2023-04-30T10:00:49.023Z,50.877197
2023-04-30T10:01:49.024Z,50.877209
2023-04-30T10:02:49.040Z,50.877209
2023-04-30T10:03:48.979Z,50.877201
2023-04-30T10:04:48.974Z,50.877205
2023-04-30T10:05:48.955Z,50.877205
2023-04-30T10:06:49.084Z,50.877167
2023-04-30T10:07:48.999Z,50.877213
2023-04-30T10:08:48.915Z,50.877190
2023-04-30T10:09:48.917Z,50.877205
2023-04-30T10:10:48.911Z,50.877213
2023-04-30T10:11:48.869Z,50.877190
2023-04-30T10:12:48.898Z,50.877205
2023-04-30T10:13:48.841Z,50.877209
2023-04-30T10:14:48.881Z,50.877193
2023-04-30T10:15:48.880Z,50.877201
2023-04-30T10:16:48.936Z,50.877193
2023-04-30T10:17:48.880Z,50.877171
2023-04-30T10:18:48.845Z,50.877174
2023-04-30T10:19:48.802Z,50.877174
2023-04-30T10:20:48.814Z,50.877182
2023-04-30T10:21:48.815Z,50.877174
2023-04-30T10:22:48.790Z,50.877193
2023-04-30T10:23:48.787Z,50.877186
2023-04-30T10:24:48.758Z,50.877197
2023-04-30T10:25:48.849Z,50.877205
2023-04-30T10:26:48.769Z,50.877197
2023-04-30T10:27:49.804Z,50.877205
2023-04-30T10:28:48.763Z,50.877213
2023-04-30T10:29:48.691Z,50.877182
2023-04-30T10:30:48.696Z,50.877205
2023-04-30T10:31:48.743Z,50.877190
2023-04-30T10:32:48.732Z,50.877171
2023-04-30T10:33:48.687Z,50.877159
2023-04-30T10:34:48.690Z,50.877174
2023-04-30T10:35:48.677Z,50.877201
2023-04-30T10:36:48.734Z,50.877190
2023-04-30T10:37:48.621Z,50.877190
2023-04-30T10:38:48.675Z,50.877197
2023-04-30T10:39:48.670Z,50.877144
2023-04-30T10:40:48.588Z,50.877171
2023-04-30T10:41:48.634Z,50.877148
2023-04-30T10:42:48.568Z,50.877174
2023-04-30T10:43:48.584Z,50.877193
2023-04-30T10:44:48.545Z,50.877193
2023-04-30T10:45:48.539Z,50.877171
2023-04-30T10:46:48.531Z,50.877144
2023-04-30T10:47:48.559Z,50.877148
2023-04-30T10:48:48.538Z,50.877178
2023-04-30T10:49:48.523Z,50.877186
2023-04-30T10:50:48.503Z,50.877113
2023-04-30T10:51:48.529Z,50.877140
2023-04-30T10:52:48.497Z,50.877151
2023-04-30T10:53:48.467Z,50.877171
2023-04-30T10:54:48.487Z,50.877193
2023-04-30T10:55:48.481Z,50.877186
2023-04-30T10:56:48.456Z,50.877155
2023-04-30T10:57:48.481Z,50.877186
2023-04-30T10:58:48.422Z,50.877190
2023-04-30T10:59:48.402Z,50.877186
2023-04-30T11:00:48.464Z,50.877193
2023-04-30T11:01:48.555Z,50.877174
2023-04-30T11:02:48.453Z,50.877182
2023-04-30T11:03:48.397Z,50.877174
2023-04-30T11:04:48.420Z,50.877190
2023-04-30T11:05:48.359Z,50.877174
2023-04-30T11:06:48.505Z,50.877155
2023-04-30T11:07:48.349Z,50.877197
2023-04-30T11:08:48.319Z,50.877182
2023-04-30T11:09:48.368Z,50.877148
2023-04-30T11:10:48.327Z,50.877171
2023-04-30T11:11:48.391Z,50.877171
2023-04-30T11:12:48.294Z,50.877159
2023-04-30T11:13:48.295Z,50.877151
2023-04-30T11:14:48.292Z,50.877178
2023-04-30T11:15:48.339Z,50.877178
2023-04-30T11:16:48.280Z,50.877167
2023-04-30T11:17:48.251Z,50.877174
2023-04-30T11:18:48.255Z,50.877178
2023-04-30T11:19:48.242Z,50.877155
2023-04-30T11:20:48.272Z,50.877205
2023-04-30T11:21:48.221Z,50.877193
2023-04-30T11:22:48.185Z,50.877197
2023-04-30T11:23:48.165Z,50.877197
2023-04-30T11:24:48.190Z,50.877197